Cape Cod Natl Seashore, Massachusetts
Current Conditions -  °F | °C
As of 7:55 AM on Tuesday 21 Oct 2014 (Local Time) from KPVC Reporting Station
Clear Clear  
Wind Chill: 57°   Ceiling: Unl
Heat Index: 57°   Visibility: 10mi
Dew Point: 50°   Wind: 7mph
Humidity: 77%   Direction: 130°SE
Pressure: 29.98"   Gusts: NA
Location:  41.97°N, 70.01°W
Report Text: KPVC 211155Z 13006KT 10SM CLR 14/10 A2998 RMK AO1 10140 20110 57007
Loading
Personal Weather Stations






























Interactive Weather Map
Tropical Storm Tracking
New forecast layout! Learn more

10-Day Weather Forecast

Advertisements
Track Severe Weather on mobile